Ana Sayfa
METAR-TAF:

METAR-TAF

Havaalanları :

Carlsbad, New Mexico, Amerika Birleşik Devletleri

Enlem: 32-20-15N, Boylam: 104-15-48W, yükseklik: 1004 m

Güncel hava durumu gözlemi

Rapor saat 03:53 UTC de 57 dakika önce yapıldı.
Rüzgar batıdan 8 kt
Sıcaklık 17°C
Nem 27%
Basınç 1008 hPa
Görüş mesafesi: 16.1 km
Açık gökyüzü

METAR: KCNM 160353Z AUTO 26008KT 10SM CLR 17/M02 A2977 RMK AO2 SLP038 T01721022 $

Saat: 21:50 (04:50 UTC)

Tahmin

Rapor saat 04:31 UTC de 19 dakika önce yapıldı.
Ayın 16'si saat 05 UTC'den ayın 16'si saat 24 UTC'ye kadar geçerli Tahmin
Rüzgar batıdan 14 kt
Görüş mesafesi: 10 km
20000 ft yükseklikte az bulutlu
Ayın 16'si saat 1400 UTC'den
Rüzgar kuzeybatıdan 15 kt ve 21 kt'a kadar ani rüzgarlar
Görüş mesafesi: 10 km
25000 ft yükseklikte az bulutlu

TAF: KCNM 160431Z 1605/1624 28014KT P6SM FEW200 FM161400 32015G21KT P6SM FEW250

4.000'den fazla havaalanı için hava durumu gözlemleri ve tahminleri (METAR ve TAF raporları).

Kullanılabilir istasyonlar harita üzerinde sarı ve kırmızı noktalarla gösterilir.

İstasyonun adını görmek için fareyi noktanın üzerinde gezdirin.

Sonrasında hava gözlem ve tahminlerini görmek için tıklayın.

Haritayı değiştirmek için: yaklaştırmak için siyah artı işaretli yeşil düğmeye ve uzaklaştırmak için de eksi işaretli düğmeye hızla tıklayın; bitişik haritalar için yeşil okları kullanın.


METAR-TAF: